createdAt,value
2022-08-29T04:00:22.267Z,19.76
2022-08-29T04:02:54.346Z,19.77
2022-08-29T04:05:24.341Z,19.80
2022-08-29T04:07:57.174Z,19.82
2022-08-29T04:10:30.686Z,19.80
2022-08-29T04:13:00.913Z,19.79
2022-08-29T04:15:33.206Z,19.77
2022-08-29T04:18:06.781Z,19.76
2022-08-29T04:20:39.505Z,19.73
2022-08-29T04:23:09.269Z,19.67
2022-08-29T04:25:38.404Z,19.65
2022-08-29T04:28:10.000Z,19.60
2022-08-29T04:30:41.405Z,19.56
2022-08-29T04:33:16.248Z,19.54
2022-08-29T04:35:53.643Z,19.52
2022-08-29T04:38:21.945Z,19.51
2022-08-29T04:40:51.285Z,19.54
2022-08-29T04:43:20.930Z,19.54
2022-08-29T04:45:59.253Z,19.57
2022-08-29T04:48:30.487Z,19.61
2022-08-29T04:51:01.993Z,19.67
2022-08-29T04:53:31.553Z,19.71
2022-08-29T04:56:07.750Z,19.69
2022-08-29T04:58:39.780Z,19.68
2022-08-29T05:01:09.632Z,19.65
2022-08-29T05:03:39.436Z,19.65
2022-08-29T05:06:12.541Z,19.60
2022-08-29T05:08:43.436Z,19.62
2022-08-29T05:11:22.863Z,19.64
2022-08-29T05:13:54.438Z,19.70
2022-08-29T05:16:24.248Z,19.75
2022-08-29T05:18:53.361Z,19.82
2022-08-29T05:21:28.761Z,19.90
2022-08-29T05:23:58.341Z,19.95
2022-08-29T05:26:32.593Z,20.00
2022-08-29T05:29:01.723Z,20.02
2022-08-29T05:31:30.850Z,20.05
2022-08-29T05:34:00.728Z,20.12
2022-08-29T05:37:05.472Z,20.17
2022-08-29T05:39:36.107Z,20.19
2022-08-29T05:42:07.866Z,20.20
2022-08-29T05:44:38.231Z,20.21
2022-08-29T05:47:10.964Z,20.20
2022-08-29T05:49:42.681Z,20.18
2022-08-29T05:52:15.608Z,20.21
2022-08-29T05:54:45.327Z,20.24
2022-08-29T05:57:19.205Z,20.25
2022-08-29T05:59:52.917Z,20.27
2022-08-29T06:02:24.526Z,20.24
2022-08-29T06:04:53.891Z,20.30
2022-08-29T06:07:23.484Z,20.36
2022-08-29T06:09:53.405Z,20.39
2022-08-29T06:12:24.348Z,20.40
2022-08-29T06:14:53.597Z,20.41
2022-08-29T06:17:22.026Z,20.45
2022-08-29T06:19:53.040Z,20.42
2022-08-29T06:22:22.803Z,20.36
2022-08-29T06:24:55.443Z,20.30
2022-08-29T06:27:27.098Z,20.28
2022-08-29T06:29:57.335Z,20.29
2022-08-29T06:32:29.289Z,20.30
2022-08-29T06:35:00.563Z,20.28
2022-08-29T06:37:29.193Z,20.28
2022-08-29T06:39:58.600Z,20.18
2022-08-29T06:42:28.702Z,20.13
2022-08-29T06:44:58.586Z,20.12
2022-08-29T06:47:28.058Z,20.11
2022-08-29T06:49:56.938Z,20.09
2022-08-29T06:52:26.138Z,20.07
2022-08-29T06:54:57.366Z,20.03
2022-08-29T06:57:27.379Z,20.06
2022-08-29T06:59:56.730Z,20.07
2022-08-29T07:02:25.860Z,20.10
2022-08-29T07:04:54.275Z,20.13
2022-08-29T07:07:22.742Z,20.19
2022-08-29T07:09:51.120Z,20.30
2022-08-29T07:12:20.943Z,20.42
2022-08-29T07:14:53.524Z,20.53
2022-08-29T07:17:25.855Z,20.59
2022-08-29T07:19:56.345Z,20.70
2022-08-29T07:22:26.668Z,20.88
2022-08-29T07:24:59.953Z,21.04
2022-08-29T07:27:30.018Z,21.10
2022-08-29T07:30:03.072Z,21.15
2022-08-29T07:32:33.261Z,21.25
2022-08-29T07:35:02.941Z,21.30
2022-08-29T07:37:32.156Z,21.35
2022-08-29T07:40:00.979Z,21.49
2022-08-29T07:42:29.989Z,21.63
2022-08-29T07:44:58.844Z,21.75
2022-08-29T07:47:27.631Z,21.82
2022-08-29T07:49:57.133Z,21.93
2022-08-29T07:52:27.224Z,22.04
2022-08-29T07:54:57.915Z,22.13
2022-08-29T07:57:27.330Z,22.23
2022-08-29T07:59:56.679Z,22.42
2022-08-29T08:02:25.199Z,22.47
2022-08-29T08:04:53.703Z,22.43
2022-08-29T08:07:28.801Z,22.39
2022-08-29T08:09:59.420Z,22.45
2022-08-29T08:12:32.714Z,22.56
2022-08-29T08:15:02.043Z,22.66
2022-08-29T08:17:31.033Z,22.80
2022-08-29T08:20:00.528Z,23.03
2022-08-29T08:22:29.647Z,23.22
2022-08-29T08:24:58.412Z,23.38
2022-08-29T08:27:26.707Z,23.46
2022-08-29T08:29:55.606Z,23.44
2022-08-29T08:32:24.543Z,23.52
2022-08-29T08:35:00.822Z,23.71
2022-08-29T08:37:29.397Z,23.83
2022-08-29T08:39:59.257Z,23.75
2022-08-29T08:42:31.702Z,23.68
2022-08-29T08:45:14.091Z,23.67
2022-08-29T08:48:01.520Z,23.62
2022-08-29T08:50:52.527Z,23.45
2022-08-29T08:53:40.907Z,23.34
2022-08-29T08:56:36.244Z,23.27
2022-08-29T08:59:15.039Z,23.22
2022-08-29T09:02:12.248Z,23.19
2022-08-29T09:05:20.159Z,23.17
2022-08-29T09:08:31.556Z,23.06
2022-08-29T09:11:38.557Z,23.12
2022-08-29T09:14:35.717Z,23.23
2022-08-29T09:17:09.027Z,23.28
2022-08-29T09:19:38.800Z,23.25
2022-08-29T09:22:16.227Z,23.17
2022-08-29T09:24:54.768Z,23.14
2022-08-29T09:27:28.610Z,23.26
2022-08-29T09:30:06.573Z,23.36
2022-08-29T09:32:59.286Z,23.49
2022-08-29T09:35:43.129Z,23.59
2022-08-29T09:38:18.013Z,23.69
2022-08-29T09:41:01.128Z,23.66
2022-08-29T09:43:39.728Z,23.59
2022-08-29T09:46:12.986Z,23.48
2022-08-29T09:48:46.265Z,23.45
2022-08-29T09:51:15.198Z,23.47
2022-08-29T09:53:44.964Z,23.43
2022-08-29T09:56:26.013Z,23.44
2022-08-29T09:59:03.718Z,23.59
2022-08-29T10:01:36.766Z,23.71
2022-08-29T10:04:08.513Z,23.78
2022-08-29T10:06:45.014Z,23.87
2022-08-29T10:09:29.562Z,23.98
2022-08-29T10:12:13.318Z,24.07
2022-08-29T10:14:50.579Z,24.11
2022-08-29T10:18:03.771Z,24.04
2022-08-29T10:21:12.280Z,23.95
2022-08-29T10:24:11.045Z,23.94
2022-08-29T10:26:47.397Z,23.83
2022-08-29T10:29:48.947Z,23.78
2022-08-29T10:32:37.061Z,23.77
2022-08-29T10:35:06.868Z,23.76
2022-08-29T10:37:58.304Z,23.78
2022-08-29T10:40:36.071Z,23.86
2022-08-29T10:43:43.926Z,23.93
2022-08-29T10:46:47.617Z,24.11
2022-08-29T10:49:36.596Z,24.22
2022-08-29T10:52:11.905Z,24.29
2022-08-29T10:55:02.637Z,24.39
2022-08-29T10:58:03.649Z,24.51
2022-08-29T11:00:55.826Z,24.60
2022-08-29T11:03:40.970Z,24.59
2022-08-29T11:06:30.594Z,24.53
2022-08-29T11:09:17.048Z,24.47
2022-08-29T11:12:02.055Z,24.40
2022-08-29T11:14:43.881Z,24.33
2022-08-29T11:17:16.526Z,24.28
2022-08-29T11:19:56.825Z,24.21
2022-08-29T11:22:35.341Z,24.17
2022-08-29T11:25:14.117Z,24.15
2022-08-29T11:27:57.867Z,24.15
2022-08-29T11:30:48.062Z,24.17
2022-08-29T11:33:29.899Z,24.22
2022-08-29T11:36:23.976Z,24.20
2022-08-29T11:39:00.002Z,24.19
2022-08-29T11:41:42.491Z,24.19
2022-08-29T11:44:20.228Z,24.21
2022-08-29T11:46:53.497Z,24.33
2022-08-29T11:49:37.176Z,24.47
2022-08-29T11:52:13.075Z,24.54
2022-08-29T11:54:46.047Z,24.57
2022-08-29T11:57:14.601Z,24.61
2022-08-29T11:59:50.018Z,24.65
2022-08-29T12:02:31.500Z,24.61
2022-08-29T12:05:30.818Z,24.57
2022-08-29T12:08:26.174Z,24.60
2022-08-29T12:10:58.650Z,24.69
2022-08-29T12:13:50.026Z,24.81
2022-08-29T12:16:44.763Z,24.94
2022-08-29T12:19:45.869Z,24.97
2022-08-29T12:22:46.544Z,25.01
2022-08-29T12:25:28.324Z,24.94
2022-08-29T12:28:08.490Z,24.85
2022-08-29T12:30:44.666Z,24.74
2022-08-29T12:33:37.306Z,24.70
2022-08-29T12:36:25.809Z,24.65
2022-08-29T12:39:04.084Z,24.61
2022-08-29T12:41:51.448Z,24.56
2022-08-29T12:44:27.535Z,24.47
2022-08-29T12:47:03.730Z,24.32
2022-08-29T12:49:52.470Z,24.15
2022-08-29T12:52:30.912Z,24.05
2022-08-29T12:55:18.459Z,24.05
2022-08-29T12:57:48.604Z,24.07
2022-08-29T13:00:29.026Z,24.07
2022-08-29T13:03:00.196Z,24.05
2022-08-29T13:05:32.315Z,24.06
2022-08-29T13:08:11.108Z,24.03
2022-08-29T13:10:57.852Z,23.93
2022-08-29T13:13:28.649Z,23.88
2022-08-29T13:16:03.270Z,23.84
2022-08-29T13:18:40.506Z,23.87
2022-08-29T13:21:32.881Z,23.94
2022-08-29T13:24:10.065Z,23.99
2022-08-29T13:27:02.818Z,24.02
2022-08-29T13:29:42.900Z,24.02
2022-08-29T13:32:21.312Z,24.02
2022-08-29T13:35:16.109Z,23.98
2022-08-29T13:37:47.113Z,23.96
2022-08-29T13:40:27.957Z,23.96
2022-08-29T13:42:58.223Z,23.95
2022-08-29T13:45:27.430Z,23.94
2022-08-29T13:48:26.536Z,23.89
2022-08-29T13:50:55.734Z,23.84
2022-08-29T13:53:25.058Z,23.85
2022-08-29T13:55:54.366Z,23.86
2022-08-29T13:58:27.465Z,23.87
2022-08-29T14:00:58.465Z,23.88
2022-08-29T14:03:28.860Z,23.87
2022-08-29T14:05:58.432Z,23.87
2022-08-29T14:08:30.197Z,23.87
2022-08-29T14:10:59.373Z,23.87
2022-08-29T14:13:28.916Z,23.85
2022-08-29T14:15:58.562Z,23.85
2022-08-29T14:18:27.689Z,23.84
2022-08-29T14:21:00.218Z,23.82
2022-08-29T14:23:29.613Z,23.81
2022-08-29T14:25:59.162Z,23.76
2022-08-29T14:28:28.248Z,23.71
2022-08-29T14:30:57.626Z,23.69
2022-08-29T14:33:26.894Z,23.67
2022-08-29T14:35:56.106Z,23.65
2022-08-29T14:38:25.537Z,23.62
2022-08-29T14:40:54.941Z,23.58
2022-08-29T14:43:23.624Z,23.59
2022-08-29T14:45:52.087Z,23.54
2022-08-29T14:48:20.572Z,23.50
2022-08-29T14:50:49.517Z,23.46
2022-08-29T14:53:18.071Z,23.42
2022-08-29T14:55:46.737Z,23.41
2022-08-29T14:58:15.260Z,23.42
2022-08-29T15:00:44.156Z,23.46
2022-08-29T15:03:13.464Z,23.50
2022-08-29T15:05:44.730Z,23.52
2022-08-29T15:08:19.097Z,23.54
2022-08-29T15:10:48.573Z,23.60
2022-08-29T15:13:18.096Z,23.72
2022-08-29T15:15:47.290Z,23.86
2022-08-29T15:18:48.169Z,23.98
2022-08-29T15:21:08.293Z,24.10
2022-08-29T15:23:37.615Z,24.21
2022-08-29T15:26:06.747Z,24.27
2022-08-29T15:28:36.108Z,24.33
2022-08-29T15:31:05.176Z,24.37
2022-08-29T15:33:34.277Z,24.35
2022-08-29T15:36:04.171Z,24.29
2022-08-29T15:38:34.125Z,24.28
2022-08-29T15:41:03.866Z,24.24
2022-08-29T15:43:35.809Z,24.15
2022-08-29T15:46:06.806Z,24.06
2022-08-29T15:48:39.008Z,23.98
2022-08-29T15:51:08.199Z,23.92
2022-08-29T15:53:37.480Z,23.91
2022-08-29T15:56:07.162Z,23.92
2022-08-29T15:58:37.526Z,23.84
2022-08-29T16:01:09.598Z,23.74
2022-08-29T16:03:39.188Z,23.63
2022-08-29T16:06:08.773Z,23.51
2022-08-29T16:08:46.085Z,23.42
2022-08-29T16:11:15.724Z,23.33
2022-08-29T16:13:45.647Z,23.25
2022-08-29T16:16:15.615Z,23.18
2022-08-29T16:18:45.125Z,23.11
2022-08-29T16:21:14.697Z,23.03
2022-08-29T16:23:47.415Z,22.96
2022-08-29T16:26:20.492Z,22.89
2022-08-29T16:28:50.603Z,22.84
2022-08-29T16:31:20.443Z,22.78
2022-08-29T16:33:50.023Z,22.73
2022-08-29T16:36:19.278Z,22.67
2022-08-29T16:38:50.119Z,22.61
2022-08-29T16:41:22.130Z,22.53
2022-08-29T16:43:55.882Z,22.46
2022-08-29T16:46:31.154Z,22.38
2022-08-29T16:49:01.117Z,22.30
2022-08-29T16:51:30.520Z,22.21
2022-08-29T16:54:00.616Z,22.13
2022-08-29T16:56:29.029Z,22.06
2022-08-29T16:59:01.262Z,21.97
2022-08-29T17:01:45.315Z,21.90
2022-08-29T17:04:19.000Z,21.81
2022-08-29T17:06:48.907Z,21.74
2022-08-29T17:09:20.156Z,21.67
2022-08-29T17:11:50.263Z,21.59
2022-08-29T17:14:22.565Z,21.53
2022-08-29T17:16:54.414Z,21.47
2022-08-29T17:19:24.379Z,21.41
2022-08-29T17:21:54.800Z,21.36
2022-08-29T17:24:25.783Z,21.31
2022-08-29T17:26:54.418Z,21.26
2022-08-29T17:29:22.778Z,21.20
2022-08-29T17:31:51.159Z,21.14
2022-08-29T17:34:20.468Z,21.07
2022-08-29T17:36:49.991Z,21.00
2022-08-29T17:39:21.347Z,20.96
2022-08-29T17:41:51.355Z,20.92
2022-08-29T17:44:21.134Z,20.90
2022-08-29T17:46:50.139Z,20.85
2022-08-29T17:49:18.528Z,20.81
2022-08-29T17:51:53.832Z,20.76
2022-08-29T17:54:24.501Z,20.71
2022-08-29T17:56:59.146Z,20.68
2022-08-29T17:59:32.323Z,20.65
2022-08-29T18:02:04.585Z,20.61
2022-08-29T18:04:33.839Z,20.58
2022-08-29T18:07:03.880Z,20.60
2022-08-29T18:09:32.292Z,20.62
2022-08-29T18:12:01.554Z,20.61
2022-08-29T18:14:30.932Z,20.61
2022-08-29T18:16:59.966Z,20.63
2022-08-29T18:19:31.773Z,20.65
2022-08-29T18:22:01.083Z,20.67
2022-08-29T18:24:30.172Z,20.67
2022-08-29T18:27:00.139Z,20.66
2022-08-29T18:29:29.199Z,20.64
2022-08-29T18:31:57.937Z,20.63
2022-08-29T18:34:27.433Z,20.62
2022-08-29T18:37:00.063Z,20.60
2022-08-29T18:39:29.272Z,20.60
2022-08-29T18:41:58.042Z,20.59
2022-08-29T18:44:27.987Z,20.61
2022-08-29T18:46:56.503Z,20.60
2022-08-29T18:49:45.550Z,20.56
2022-08-29T18:52:15.383Z,20.54
2022-08-29T18:54:44.309Z,20.51
2022-08-29T18:57:12.641Z,20.50
2022-08-29T18:59:42.781Z,20.47
2022-08-29T19:02:13.558Z,20.44
2022-08-29T19:04:43.037Z,20.41
2022-08-29T19:07:12.076Z,20.37
2022-08-29T19:09:41.480Z,20.39
2022-08-29T19:12:12.014Z,20.39
2022-08-29T19:14:46.043Z,20.38
2022-08-29T19:17:16.246Z,20.36
2022-08-29T19:20:03.674Z,20.33
2022-08-29T19:22:39.772Z,20.34
2022-08-29T19:25:10.303Z,20.37
2022-08-29T19:27:45.889Z,20.37
2022-08-29T19:30:16.904Z,20.33
2022-08-29T19:32:49.517Z,20.28
2022-08-29T19:35:23.130Z,20.26
2022-08-29T19:37:52.338Z,20.24
2022-08-29T19:40:22.136Z,20.19
2022-08-29T19:42:51.469Z,20.14
2022-08-29T19:45:20.933Z,20.06
2022-08-29T19:47:49.758Z,19.99
2022-08-29T19:50:20.977Z,19.93
2022-08-29T19:52:52.382Z,19.88
2022-08-29T19:55:24.050Z,19.84
2022-08-29T19:57:53.401Z,19.78
2022-08-29T20:00:24.724Z,19.68
2022-08-29T20:02:53.730Z,19.61
2022-08-29T20:05:23.453Z,19.55
2022-08-29T20:07:52.664Z,19.50
2022-08-29T20:10:25.419Z,19.45
2022-08-29T20:12:56.047Z,19.45
2022-08-29T20:15:30.543Z,19.44
2022-08-29T20:18:01.496Z,19.43
2022-08-29T20:20:36.235Z,19.43
2022-08-29T20:23:06.201Z,19.40
2022-08-29T20:25:35.728Z,19.36
2022-08-29T20:28:06.154Z,19.33
2022-08-29T20:30:35.807Z,19.32
2022-08-29T20:33:04.991Z,19.29
2022-08-29T20:35:53.354Z,19.27
2022-08-29T20:38:22.515Z,19.22
2022-08-29T20:40:52.601Z,19.17
2022-08-29T20:43:21.461Z,19.11
2022-08-29T20:45:50.532Z,19.07
2022-08-29T20:48:19.842Z,19.06
2022-08-29T20:51:06.854Z,19.05
2022-08-29T20:53:36.969Z,19.03
2022-08-29T20:56:05.853Z,18.99
2022-08-29T20:58:35.035Z,18.97
2022-08-29T21:01:03.809Z,18.94
2022-08-29T21:03:52.770Z,18.89
2022-08-29T21:06:22.099Z,18.86
2022-08-29T21:08:51.947Z,18.82
2022-08-29T21:11:24.999Z,18.79
2022-08-29T21:13:53.638Z,18.74
2022-08-29T21:16:23.319Z,18.74
2022-08-29T21:18:53.047Z,18.71
2022-08-29T21:21:24.901Z,18.71
2022-08-29T21:23:53.698Z,18.71
2022-08-29T21:26:23.383Z,18.65
2022-08-29T21:28:51.932Z,18.62
2022-08-29T21:31:23.713Z,18.57
2022-08-29T21:33:53.218Z,18.52
2022-08-29T21:36:25.957Z,18.46
2022-08-29T21:38:57.963Z,18.39
2022-08-29T21:41:30.123Z,18.31
2022-08-29T21:43:59.204Z,18.23
2022-08-29T21:46:30.819Z,18.15
2022-08-29T21:49:01.700Z,18.08
2022-08-29T21:51:31.659Z,18.02
2022-08-29T21:54:01.014Z,18.02
2022-08-29T21:56:31.941Z,17.99
2022-08-29T21:59:02.318Z,17.97
2022-08-29T22:01:34.435Z,17.94
2022-08-29T22:04:03.553Z,17.90
2022-08-29T22:06:35.883Z,17.89
2022-08-29T22:09:05.220Z,17.85
2022-08-29T22:11:38.150Z,17.83
2022-08-29T22:14:09.135Z,17.80
2022-08-29T22:16:38.871Z,17.80
2022-08-29T22:19:12.681Z,17.77
2022-08-29T22:21:47.539Z,17.76
2022-08-29T22:24:17.763Z,17.77
2022-08-29T22:26:47.487Z,17.76
2022-08-29T22:29:21.038Z,17.71
2022-08-29T22:31:49.859Z,17.69
2022-08-29T22:34:19.896Z,17.67
2022-08-29T22:36:48.863Z,17.65
2022-08-29T22:39:17.863Z,17.66
2022-08-29T22:41:47.848Z,17.70
2022-08-29T22:44:59.898Z,17.73
2022-08-29T22:47:06.429Z,17.74
2022-08-29T22:49:34.600Z,17.73
2022-08-29T22:52:06.278Z,17.75
2022-08-29T22:54:40.673Z,17.75
2022-08-29T22:57:12.854Z,17.73
2022-08-29T22:59:43.281Z,17.70
